Portada
METAR-TAF:

METAR-TAF

Aeropuertos :

Ancona, Italia

latitud: 43-37N, longitud: 013-22E, altitud: 12 m

Observación

El informe se hizo hace 34 minutos, a las 08:20 UTC
Viento 3 kt del suroeste, variando entre sur y oeste
Temperatura 7°C
Humedad 66%
Presión 1027 hPa
Visibilidad 10 km o más

METAR: LIPY 070820Z AUTO 23003KT 190V280 9999 NCD 07/01 Q1027

Hora: 09:54 (08:54 UTC)

Pronóstico

El informe se hizo hace 3 horas y 54 minutos, a las 05:00 UTC
Pronóstico válido del 07 a las 06 UTC al 08 a las 06 UTC
Viento 5 kt con dirección variable
Visibilidad 10 km o más
sin nubes por debajo de 1500 m y sin presencia de cumulonimbus.
Temporalmente
del 07 a las 22 UTC al 08 a las 06 UTC
lluvia

TAF: LIPY 070500Z 0706/0806 VRB05KT CAVOK TEMPO 0722/0806 RA

Observaciones y pronósticos meteorológicos de más de 4000 aeropuertos (mensajes METAR y TAF).

Los puntos amarillos y rojos representan las estaciones disponibles.

Ponga el ratón en el punto deseado para ver el nombre de la estación.

Haga clic para ver las observaciones y los pronósticos meteorológicos.

Para cambiar el mapa : haga clic en los botones verdes con una cruz de color negro para hacer un zoom, en el botón verde con un guión para alejar o en las flechas verdes para mapas adyacentes.


METAR-TAF: